Kenneth Carl — WDF8246 — position and weather

sailwx.info

Track history (hours):
 
Tides and Currents Weather Stations Pressure Air Temp Water Temp Dewpoint Dewpoint Depression Visibility Wind Speed Wind Dir Waves Ship Positions

Kenneth Carl

Owner: So. Cal. Ship Services, Inc., San Pedro, CA. More information available from US FCC via Universal Licensing System and Coast Guard Vessel Documentation Center.

Last reported at 2017-Aug-18 12:28 UTC. Time now 2017-Aug-18 12:52 UTC.
Position N 33°44' W 118°16'.

Length 31 m; draft 3 m.

Type: Ship. MMSI: 367492920.

Date/timePositionNaut miles runAvg speedWind from/ knotsBaromVisibWave heightAir tempDewpointWater temp
2017-Aug-18 12:28N 33°44' W 118°16'0 0.0
2017-Aug-18 11:55N 33°44' W 118°16'0 0.0
2017-Aug-18 11:28N 33°44' W 118°16'0 0.0
2017-Aug-18 10:58N 33°44' W 118°16'0 0.0
2017-Aug-18 10:28N 33°44' W 118°16'0 0.0
2017-Aug-18 09:58N 33°44' W 118°16'0 0.0
2017-Aug-18 09:28N 33°44' W 118°16'0 0.0
2017-Aug-18 08:58N 33°44' W 118°16'0 0.0
2017-Aug-18 08:28N 33°44' W 118°16'0 0.0
2017-Aug-18 07:59N 33°44' W 118°16'2 4.3
2017-Aug-18 07:30N 33°42' W 118°15'5 9.9
2017-Aug-18 07:00N 33°43' W 118°21'510.3
2017-Aug-18 06:31N 33°45' W 118°27'510.5
2017-Aug-18 06:00N 33°48' W 118°32'510.5
2017-Aug-18 05:31N 33°51' W 118°37'510.5
2017-Aug-18 05:00N 33°53' W 118°43'510.7
2017-Aug-18 04:30N 33°56' W 118°49'510.1
2017-Aug-18 04:01N 33°58' W 118°54'510.0
2017-Aug-18 03:31N 33°60' W 118°60'5 9.9
2017-Aug-18 03:01N 34°02' W 119°05'510.2
2017-Aug-18 02:31N 34°04' W 119°11'5 9.9
2017-Aug-18 02:00N 34°09' W 119°13'1 1.2
2017-Aug-18 01:30N 34°09' W 119°13'0 0.0
2017-Aug-18 01:01N 34°09' W 119°13'2 3.9
2017-Aug-18 00:30N 34°07' W 119°12'1 2.4
2017-Aug-18 00:01N 34°06' W 119°13'5 9.7
2017-Aug-17 23:31N 34°01' W 119°13'5 9.7
2017-Aug-17 23:00N 33°56' W 119°13'510.0
2017-Aug-17 22:31N 33°51' W 119°14'510.1
2017-Aug-17 22:00N 33°46' W 119°14'4 7.4
2017-Aug-17 21:30N 33°43' W 119°13'510.5
2017-Aug-17 21:00N 33°39' W 119°09'1 2.4
2017-Aug-17 20:30N 33°38' W 119°08'0 0.1
2017-Aug-17 20:01N 33°38' W 119°08'0 0.6
2017-Aug-17 19:31N 33°38' W 119°07'0 0.4
2017-Aug-17 19:00N 33°38' W 119°07'0 0.3
2017-Aug-17 18:31N 33°38' W 119°07'0 0.5
2017-Aug-17 18:01N 33°38' W 119°08'0 0.2
2017-Aug-17 17:31N 33°37' W 119°08'0 0.2
2017-Aug-17 17:01N 33°37' W 119°08'0 0.5
2017-Aug-17 16:30N 33°37' W 119°08'4 7.6
2017-Aug-17 16:01N 33°39' W 119°12'1 2.4
2017-Aug-17 15:31N 33°39' W 119°14'1 1.7
2017-Aug-17 15:00N 33°38' W 119°14'1 1.1
2017-Aug-17 14:30N 33°38' W 119°15'1 1.3
2017-Aug-17 14:00N 33°38' W 119°15'1 1.9
2017-Aug-17 13:30N 33°38' W 119°17'1 3.0
2017-Aug-17 13:01N 33°38' W 119°15'2 4.2
2017-Aug-17 12:30N 33°40' W 119°15'4 7.5
2017-Aug-17 12:00N 33°44' W 119°15'4 7.5
2017-Aug-17 11:30N 33°48' W 119°15'4 7.8
2017-Aug-17 11:00N 33°51' W 119°15'4 8.4
2017-Aug-17 10:31N 33°56' W 119°14'4 8.6
2017-Aug-17 10:00N 33°60' W 119°14'4 8.5
2017-Aug-17 09:31N 34°04' W 119°14'4 8.6
2017-Aug-17 09:00N 34°08' W 119°13'1 1.6
2017-Aug-17 08:30N 34°09' W 119°12'0 0.0
2017-Aug-17 08:00N 34°09' W 119°12'0 0.0
2017-Aug-17 07:30N 34°09' W 119°12'0 0.0
2017-Aug-17 07:00N 34°09' W 119°12'0 0.0
2017-Aug-17 06:30N 34°09' W 119°12'0 0.0
2017-Aug-17 06:00N 34°09' W 119°12'0 0.0
2017-Aug-17 05:30N 34°09' W 119°12'0 0.0
2017-Aug-17 05:00N 34°09' W 119°12'0 0.0
2017-Aug-17 04:29N 34°09' W 119°12'0 0.0
2017-Aug-17 04:00N 34°09' W 119°12'0 0.0
2017-Aug-17 03:30N 34°09' W 119°12'0 0.0
2017-Aug-17 02:56N 34°09' W 119°12'0 0.0
2017-Aug-17 02:30N 34°09' W 119°12'0 0.0
2017-Aug-17 02:00N 34°09' W 119°12'0 0.0
2017-Aug-17 01:30N 34°09' W 119°12'0 0.0
2017-Aug-17 01:00N 34°09' W 119°12'0 0.0
2017-Aug-17 00:30N 34°09' W 119°12'0 0.0
2017-Aug-16 23:54N 34°09' W 119°12'1 3.1
2017-Aug-16 23:30N 34°08' W 119°13'2 4.5
2017-Aug-16 23:00N 34°06' W 119°13'5 9.6
2017-Aug-16 22:30N 34°01' W 119°13'510.1
2017-Aug-16 22:00N 33°56' W 119°13'510.2
2017-Aug-16 21:30N 33°51' W 119°13'510.3
2017-Aug-16 21:00N 33°46' W 119°14'510.1
2017-Aug-16 20:30N 33°41' W 119°14'3 6.2
2017-Aug-16 20:00N 33°39' W 119°11'3 6.0
2017-Aug-16 19:30N 33°37' W 119°08'1 2.7
2017-Aug-16 19:00N 33°38' W 119°09'1 1.7
2017-Aug-16 18:30N 33°39' W 119°09'0 0.6
2017-Aug-16 18:00N 33°39' W 119°09'0 0.6
2017-Aug-16 17:28N 33°39' W 119°09'0 0.7
2017-Aug-16 17:00N 33°39' W 119°09'0 0.8
2017-Aug-16 16:30N 33°38' W 119°10'0 1.0
2017-Aug-16 16:00N 33°38' W 119°10'1 1.4
2017-Aug-16 15:30N 33°38' W 119°11'2 3.5
2017-Aug-16 15:00N 33°38' W 119°13'1 1.3
2017-Aug-16 14:30N 33°38' W 119°14'0 0.9
2017-Aug-16 14:00N 33°37' W 119°14'0 0.2
2017-Aug-16 13:30N 33°37' W 119°14'0 0.6
2017-Aug-16 13:00N 33°37' W 119°15'3 6.4
2017-Aug-16 12:30N 33°40' W 119°15'4 7.9
2017-Aug-16 12:00N 33°44' W 119°15'4 8.1
2017-Aug-16 11:30N 33°48' W 119°14'4 8.0
2017-Aug-16 11:00N 33°52' W 119°14'5 8.0
2017-Aug-16 10:22N 33°57' W 119°14'3 8.2
2017-Aug-16 10:00N 34°00' W 119°14'4 8.2
2017-Aug-16 09:30N 34°04' W 119°14'4 8.3
2017-Aug-16 09:00N 34°09' W 119°13'1 1.3
2017-Aug-16 08:29N 34°09' W 119°13'0 0.0
2017-Aug-16 08:00N 34°09' W 119°13'0 0.0
2017-Aug-16 07:29N 34°09' W 119°13'0 0.0
2017-Aug-16 06:59N 34°09' W 119°13'0 0.0
2017-Aug-16 06:30N 34°09' W 119°13'0 0.0
2017-Aug-16 05:58N 34°09' W 119°13'0 0.0
2017-Aug-16 05:28N 34°09' W 119°13'0 0.0
2017-Aug-16 04:59N 34°09' W 119°13'0 0.0
2017-Aug-16 04:28N 34°09' W 119°13'0 0.0
2017-Aug-16 04:00N 34°09' W 119°13'0 0.0
2017-Aug-16 03:30N 34°09' W 119°13'0 0.0
2017-Aug-16 02:59N 34°09' W 119°13'0 0.0
2017-Aug-16 02:29N 34°09' W 119°13'0 0.0
2017-Aug-16 02:00N 34°09' W 119°13'0 0.0
2017-Aug-16 01:29N 34°09' W 119°13'0 0.0
2017-Aug-16 00:58N 34°09' W 119°13'0 0.0
2017-Aug-16 00:29N 34°09' W 119°13'0 0.0
2017-Aug-16 00:00N 34°09' W 119°13'0 0.0
2017-Aug-15 23:27N 34°09' W 119°13'0 0.0
2017-Aug-15 22:59N 34°09' W 119°13'0 0.0
2017-Aug-15 22:25N 34°09' W 119°13'0 0.0
2017-Aug-15 21:56N 34°09' W 119°13'0 0.0
2017-Aug-15 21:27N 34°09' W 119°13'0 0.0
2017-Aug-15 21:00N 34°09' W 119°13'0 0.0
2017-Aug-15 20:27N 34°09' W 119°13'0 0.0
2017-Aug-15 19:58N 34°09' W 119°13'0 0.0
2017-Aug-15 19:30N 34°09' W 119°13'0 0.2
2017-Aug-15 19:00N 34°09' W 119°12'2 4.0
2017-Aug-15 18:30N 34°07' W 119°12'5 9.6
2017-Aug-15 18:00N 34°04' W 119°07'5 9.7
2017-Aug-15 17:30N 34°02' W 119°02'510.1
2017-Aug-15 17:00N 33°60' W 118°57'510.0
2017-Aug-15 16:30N 33°57' W 118°52'5 9.8
2017-Aug-15 16:00N 33°55' W 118°47'5 9.8
2017-Aug-15 15:30N 33°52' W 118°42'510.0
2017-Aug-15 15:00N 33°49' W 118°36'5 9.9
2017-Aug-15 14:30N 33°47' W 118°31'1210.2
2017-Aug-15 13:18N 33°42' W 118°18'2 7.9
2017-Aug-15 13:00N 33°43' W 118°15'1 2.6
2017-Aug-15 12:26N 33°44' W 118°16'0 0.0
2017-Aug-15 11:59N 33°44' W 118°16'0 0.0
2017-Aug-15 09:52N 33°44' W 118°16'0 0.0
2017-Aug-15 09:10N 33°44' W 118°16'0 0.0
2017-Aug-15 08:52N 33°44' W 118°16'0 0.0
2017-Aug-15 07:10N 33°44' W 118°16'0 0.0
2017-Aug-15 06:52N 33°44' W 118°16'0 0.0
2017-Aug-15 06:04N 33°44' W 118°16'0 0.0
2017-Aug-15 05:58N 33°44' W 118°16'0 0.0
2017-Aug-15 05:22N 33°44' W 118°16'0 0.0
2017-Aug-15 04:52N 33°44' W 118°16'0 0.0
2017-Aug-15 04:28N 33°44' W 118°16'0 0.0
2017-Aug-15 03:58N 33°44' W 118°16'0 0.0
2017-Aug-15 03:16N 33°44' W 118°16'0 0.0
2017-Aug-15 02:58N 33°44' W 118°16'0 0.0
2017-Aug-15 01:58N 33°44' W 118°16'0 0.0
2017-Aug-15 01:28N 33°44' W 118°16'0 0.0
2017-Aug-15 00:58N 33°44' W 118°16'0 0.0
2017-Aug-15 00:28N 33°44' W 118°16'0 0.0
2017-Aug-15 00:00N 33°44' W 118°16'0 0.0
2017-Aug-14 23:30N 33°44' W 118°16'0 0.0
2017-Aug-14 23:00N 33°44' W 118°16'0 0.0
2017-Aug-14 22:30N 33°44' W 118°16'0 0.0
2017-Aug-14 22:00N 33°44' W 118°16'0 0.0
2017-Aug-14 21:30N 33°44' W 118°16'0 0.0
2017-Aug-14 21:00N 33°44' W 118°16'0 0.0
2017-Aug-14 20:30N 33°44' W 118°16'0 0.0
2017-Aug-14 20:00N 33°44' W 118°16'0 0.8
2017-Aug-14 19:30N 33°44' W 118°16'0 0.7
2017-Aug-14 18:55N 33°44' W 118°16'0 0.0
2017-Aug-14 18:25N 33°44' W 118°16'0 0.0
2017-Aug-14 17:55N 33°44' W 118°16'0 0.0
2017-Aug-14 17:25N 33°44' W 118°16'0 0.0
2017-Aug-14 16:43N 33°44' W 118°16'0 0.0
2017-Aug-14 16:19N 33°44' W 118°16'0 0.0
2017-Aug-14 15:37N 33°44' W 118°16'0 0.0
2017-Aug-14 14:49N 33°44' W 118°16'0 0.0
2017-Aug-14 14:13N 33°44' W 118°16'0 0.0
2017-Aug-14 13:58N 33°44' W 118°16'0 0.0
2017-Aug-14 13:25N 33°44' W 118°16'0 0.0
2017-Aug-14 12:09N 33°44' W 118°16'0 0.0
2017-Aug-14 11:57N 33°44' W 118°16'0 0.0
2017-Aug-14 11:27N 33°44' W 118°16'0 0.0
2017-Aug-14 10:57N 33°44' W 118°16'0 0.0
2017-Aug-14 10:30N 33°44' W 118°16'0 0.0
2017-Aug-14 10:00N 33°44' W 118°16'0 0.0
2017-Aug-14 09:30N 33°44' W 118°16'0 0.0
2017-Aug-14 09:00N 33°44' W 118°16'0 0.0
2017-Aug-14 08:27N 33°44' W 118°16'0 0.0
2017-Aug-14 07:57N 33°44' W 118°16'0 0.0
2017-Aug-14 07:30N 33°44' W 118°16'0 0.0
2017-Aug-14 06:51N 33°44' W 118°16'0 0.0
2017-Aug-14 06:30N 33°44' W 118°16'0 0.0
2017-Aug-14 06:00N 33°44' W 118°16'0 0.0
2017-Aug-14 05:24N 33°44' W 118°16'0 0.0
2017-Aug-14 04:57N 33°44' W 118°16'0 0.0
2017-Aug-14 04:27N 33°44' W 118°16'0 0.0
2017-Aug-14 03:57N 33°44' W 118°16'0 0.0
2017-Aug-14 03:30N 33°44' W 118°16'0 0.0
2017-Aug-14 02:57N 33°44' W 118°16'0 0.0
2017-Aug-14 02:30N 33°44' W 118°16'0 0.0
2017-Aug-14 02:00N 33°44' W 118°16'0 0.0
2017-Aug-14 01:30N 33°44' W 118°16'0 0.0
2017-Aug-14 01:00N 33°44' W 118°16'0 0.0
2017-Aug-14 00:30N 33°44' W 118°16'0 0.0
2017-Aug-14 00:00N 33°44' W 118°16'0 0.0
2017-Aug-13 23:30N 33°44' W 118°16'0 0.0
2017-Aug-13 22:57N 33°44' W 118°16'0 0.0
2017-Aug-13 22:27N 33°44' W 118°16'0 0.0
2017-Aug-13 22:00N 33°44' W 118°16'0 0.0
2017-Aug-13 21:21N 33°44' W 118°16'0 0.0
2017-Aug-13 20:57N 33°44' W 118°16'0 0.0
2017-Aug-13 20:27N 33°44' W 118°16'0 0.0
2017-Aug-13 20:00N 33°44' W 118°16'0 0.0
2017-Aug-13 19:30N 33°44' W 118°16'0 0.0
2017-Aug-13 19:00N 33°44' W 118°16'0 0.0
2017-Aug-13 18:30N 33°44' W 118°16'0 0.0
2017-Aug-13 18:00N 33°44' W 118°16'0 0.0
2017-Aug-13 17:24N 33°44' W 118°16'0 0.0
2017-Aug-13 16:57N 33°44' W 118°16'0 0.0
2017-Aug-13 16:30N 33°44' W 118°16'0 0.0
2017-Aug-13 16:00N 33°44' W 118°16'0 0.0
2017-Aug-13 15:30N 33°44' W 118°16'0 0.0
2017-Aug-13 14:51N 33°44' W 118°16'0 0.0
2017-Aug-13 14:30N 33°44' W 118°16'0 0.0
2017-Aug-13 14:00N 33°44' W 118°16'0 0.0
2017-Aug-13 13:30N 33°44' W 118°16'0 0.0
2017-Aug-13 12:57N 33°44' W 118°16'0 0.0
2017-Aug-13 12:30N 33°44' W 118°16'0 0.0
2017-Aug-13 11:54N 33°44' W 118°16'0 0.0
2017-Aug-13 11:24N 33°44' W 118°16'0 0.0
2017-Aug-13 10:57N 33°44' W 118°16'0 0.0
2017-Aug-13 10:27N 33°44' W 118°16'0 0.0
2017-Aug-13 10:00N 33°44' W 118°16'0 0.0
2017-Aug-13 09:30N 33°44' W 118°16'0 0.0
2017-Aug-13 09:00N 33°44' W 118°16'0 0.0
2017-Aug-13 08:30N 33°44' W 118°16'0 0.0
2017-Aug-13 08:00N 33°44' W 118°16'0 0.0
2017-Aug-13 07:30N 33°44' W 118°16'0 0.0
2017-Aug-13 07:00N 33°44' W 118°16'0 0.0
2017-Aug-13 06:27N 33°44' W 118°16'0 0.0
2017-Aug-13 06:00N 33°44' W 118°16'0 0.0
2017-Aug-13 05:30N 33°44' W 118°16'0 0.0
2017-Aug-13 05:00N 33°44' W 118°16'0 0.0
2017-Aug-13 04:30N 33°44' W 118°16'0 0.0
2017-Aug-13 04:00N 33°44' W 118°16'0 0.0
2017-Aug-13 03:30N 33°44' W 118°16'0 0.0
2017-Aug-13 03:00N 33°44' W 118°16'0 0.0
2017-Aug-13 02:30N 33°44' W 118°16'0 0.0
2017-Aug-13 01:57N 33°44' W 118°16'0 0.0
2017-Aug-13 01:30N 33°44' W 118°16'0 0.0
2017-Aug-13 01:00N 33°44' W 118°16'0 0.0
2017-Aug-13 00:30N 33°44' W 118°16'0 0.0
2017-Aug-12 23:57N 33°44' W 118°16'0 0.0
2017-Aug-12 23:30N 33°44' W 118°16'0 0.0
2017-Aug-12 23:00N 33°44' W 118°16'0 0.0
2017-Aug-12 22:30N 33°44' W 118°16'0 0.0
2017-Aug-12 22:00N 33°44' W 118°16'0 0.0
2017-Aug-12 21:27N 33°44' W 118°16'0 0.0
2017-Aug-12 21:00N 33°44' W 118°16'0 0.0
2017-Aug-12 20:30N 33°44' W 118°16'0 0.0
2017-Aug-12 19:48N 33°44' W 118°16'0 0.0
2017-Aug-12 19:24N 33°44' W 118°16'0 0.0
2017-Aug-12 19:00N 33°44' W 118°16'0 0.0
2017-Aug-12 18:27N 33°44' W 118°16'0 0.0
2017-Aug-12 18:00N 33°44' W 118°16'0 0.0
2017-Aug-12 17:27N 33°44' W 118°16'0 0.0
2017-Aug-12 16:51N 33°44' W 118°16'0 0.0
2017-Aug-12 16:27N 33°44' W 118°16'0 0.0
2017-Aug-12 16:00N 33°44' W 118°16'0 0.0
2017-Aug-12 15:30N 33°44' W 118°16'0 0.0
2017-Aug-12 15:00N 33°44' W 118°16'0 0.0
2017-Aug-12 14:27N 33°44' W 118°16'0 0.0
2017-Aug-12 14:00N 33°44' W 118°16'0 0.0
2017-Aug-12 13:27N 33°44' W 118°16'0 0.0
2017-Aug-12 12:51N 33°44' W 118°16'0 0.0
2017-Aug-12 12:30N 33°44' W 118°16'0 0.0
2017-Aug-12 12:00N 33°44' W 118°16'0 0.0
2017-Aug-12 11:21N 33°44' W 118°16'0 0.0
2017-Aug-12 11:00N 33°44' W 118°16'0 0.0
2017-Aug-12 10:30N 33°44' W 118°16'0 0.0
2017-Aug-12 10:00N 33°44' W 118°16'0 0.0
2017-Aug-12 09:30N 33°44' W 118°16'0 0.0
2017-Aug-12 09:00N 33°44' W 118°16'0 0.0
2017-Aug-12 08:30N 33°44' W 118°16'0 0.0
2017-Aug-12 08:00N 33°44' W 118°16'0 0.0
2017-Aug-12 07:30N 33°44' W 118°16'0 0.0
2017-Aug-12 07:00N 33°44' W 118°16'0 0.0
2017-Aug-12 06:30N 33°44' W 118°16'0 0.0
2017-Aug-12 06:00N 33°44' W 118°16'0 0.0
2017-Aug-12 05:30N 33°44' W 118°16'0 0.0
2017-Aug-12 05:00N 33°44' W 118°16'0 0.0
2017-Aug-12 04:30N 33°44' W 118°16'0 0.0
2017-Aug-12 04:00N 33°44' W 118°16'0 0.0
2017-Aug-12 03:30N 33°44' W 118°16'0 0.0
2017-Aug-12 03:00N 33°44' W 118°16'0 0.0
2017-Aug-12 02:30N 33°44' W 118°16'0 0.0
2017-Aug-12 02:00N 33°44' W 118°16'0 0.0
2017-Aug-12 01:30N 33°44' W 118°16'0 0.0
2017-Aug-12 01:00N 33°44' W 118°16'0 0.0
2017-Aug-12 00:30N 33°44' W 118°16'0 0.0
2017-Aug-12 00:00N 33°44' W 118°16'0 0.0
2017-Aug-11 23:30N 33°44' W 118°16'0 0.1
2017-Aug-11 23:01N 33°44' W 118°16'0 0.0
2017-Aug-11 22:31N 33°44' W 118°16'3 6.3
2017-Aug-11 22:01N 33°42' W 118°14'5 9.6
2017-Aug-11 21:31N 33°38' W 118°11'5 9.6
2017-Aug-11 21:01N 33°34' W 118°07'1 2.3
2017-Aug-11 20:31N 33°35' W 118°08'0 0.2
2017-Aug-11 20:00N 33°35' W 118°08'0 0.0
2017-Aug-11 19:30N 33°35' W 118°08'0 0.0
2017-Aug-11 18:56N 33°35' W 118°08'0 0.0
2017-Aug-11 18:30N 33°35' W 118°08'0 0.0
2017-Aug-11 18:00N 33°35' W 118°08'0 0.0
2017-Aug-11 17:31N 33°35' W 118°08'0 0.0
2017-Aug-11 17:00N 33°35' W 118°08'0 0.0
2017-Aug-11 16:31N 33°35' W 118°08'0 0.0
2017-Aug-11 16:00N 33°35' W 118°08'2 4.4
2017-Aug-11 15:30N 33°37' W 118°09'5 9.4
2017-Aug-11 15:00N 33°40' W 118°13'4 8.9
2017-Aug-11 14:31N 33°44' W 118°16'0 0.4
2017-Aug-11 13:30N 33°44' W 118°16'0 0.0
2017-Aug-11 13:00N 33°44' W 118°16'0 0.0
2017-Aug-11 12:30N 33°44' W 118°16'0 0.1
2017-Aug-11 11:57N 33°44' W 118°16'0 0.0
2017-Aug-11 11:30N 33°44' W 118°16'0 0.0
2017-Aug-11 11:00N 33°44' W 118°16'0 0.0
2017-Aug-11 10:30N 33°44' W 118°16'0 0.0
2017-Aug-11 09:57N 33°44' W 118°16'0 0.0
2017-Aug-11 09:30N 33°44' W 118°16'0 0.0
2017-Aug-11 09:00N 33°44' W 118°16'0 0.0
2017-Aug-11 08:21N 33°44' W 118°16'0 0.0
2017-Aug-11 07:57N 33°44' W 118°16'0 0.0
2017-Aug-11 07:30N 33°44' W 118°16'0 0.0
2017-Aug-11 07:00N 33°44' W 118°16'0 0.0
2017-Aug-11 06:30N 33°44' W 118°16'0 0.0
2017-Aug-11 05:57N 33°44' W 118°16'0 0.0
2017-Aug-11 05:30N 33°44' W 118°16'0 0.0
2017-Aug-11 05:00N 33°44' W 118°16'0 0.0
2017-Aug-11 04:24N 33°44' W 118°16'0 0.0
2017-Aug-11 04:00N 33°44' W 118°16'0 0.0
2017-Aug-11 03:30N 33°44' W 118°16'0 0.0
2017-Aug-11 02:57N 33°44' W 118°16'0 0.0
2017-Aug-11 02:30N 33°44' W 118°16'0 0.0
2017-Aug-11 02:00N 33°44' W 118°16'0 0.0
2017-Aug-11 01:21N 33°44' W 118°16'0 0.0
2017-Aug-11 01:00N 33°44' W 118°16'0 0.0
2017-Aug-11 00:30N 33°44' W 118°16'0 0.0
2017-Aug-11 00:00N 33°44' W 118°16'0 0.0
2017-Aug-10 23:30N 33°44' W 118°16'0 0.0
2017-Aug-10 23:00N 33°44' W 118°16'0 0.0
2017-Aug-10 22:30N 33°44' W 118°16'0 0.0
2017-Aug-10 22:00N 33°44' W 118°16'0 0.0
2017-Aug-10 21:30N 33°44' W 118°16'0 0.0
2017-Aug-10 21:00N 33°44' W 118°16'0 0.0
2017-Aug-10 20:30N 33°44' W 118°16'0 0.0
2017-Aug-10 20:00N 33°44' W 118°16'0 0.0
2017-Aug-10 19:30N 33°44' W 118°16'0 0.0
2017-Aug-10 19:00N 33°44' W 118°16'0 0.0
2017-Aug-10 18:27N 33°44' W 118°16'0 0.0
2017-Aug-10 18:00N 33°44' W 118°16'0 0.0
2017-Aug-10 17:27N 33°44' W 118°16'0 0.0
2017-Aug-10 16:57N 33°44' W 118°16'0 0.0
2017-Aug-10 16:27N 33°44' W 118°16'0 0.0
2017-Aug-10 15:57N 33°44' W 118°16'0 0.0
2017-Aug-10 15:30N 33°44' W 118°16'0 0.0
2017-Aug-10 14:57N 33°44' W 118°16'0 0.0
2017-Aug-10 14:27N 33°44' W 118°16'0 0.0
2017-Aug-10 13:57N 33°44' W 118°16'0 0.0
2017-Aug-10 13:27N 33°44' W 118°16'0 0.0
2017-Aug-10 12:57N 33°44' W 118°16'0 0.0
2017-Aug-10 12:27N 33°44' W 118°16'0 0.0
2017-Aug-10 11:57N 33°44' W 118°16'0 0.0
2017-Aug-10 11:27N 33°44' W 118°16'0 0.0
2017-Aug-10 11:00N 33°44' W 118°16'0 0.0
2017-Aug-10 10:30N 33°44' W 118°16'0 0.0
2017-Aug-10 09:57N 33°44' W 118°16'0 0.0
2017-Aug-10 09:27N 33°44' W 118°16'0 0.0
2017-Aug-10 09:00N 33°44' W 118°16'0 0.0
2017-Aug-10 08:30N 33°44' W 118°16'0 0.0
2017-Aug-10 08:00N 33°44' W 118°16'0 0.0
2017-Aug-10 07:30N 33°44' W 118°16'0 0.0
2017-Aug-10 07:00N 33°44' W 118°16'0 0.0
2017-Aug-10 06:30N 33°44' W 118°16'0 0.0
2017-Aug-10 05:57N 33°44' W 118°16'0 0.0
2017-Aug-10 05:30N 33°44' W 118°16'0 0.0
2017-Aug-10 04:57N 33°44' W 118°16'0 0.0
2017-Aug-10 04:30N 33°44' W 118°16'0 0.0
2017-Aug-10 04:00N 33°44' W 118°16'0 0.0
2017-Aug-10 03:30N 33°44' W 118°16'0 0.0
2017-Aug-10 02:57N 33°44' W 118°16'0 0.0
2017-Aug-10 02:30N 33°44' W 118°16'0 0.0
2017-Aug-10 02:00N 33°44' W 118°16'0 0.0
2017-Aug-10 01:30N 33°44' W 118°16'0 0.0
2017-Aug-10 01:00N 33°44' W 118°16'0 0.0
2017-Aug-10 00:30N 33°44' W 118°16'0 0.0
2017-Aug-09 23:57N 33°44' W 118°16'0 0.0
2017-Aug-09 23:30N 33°44' W 118°16'0 0.0
2017-Aug-09 23:00N 33°44' W 118°16'0 0.0
2017-Aug-09 22:30N 33°44' W 118°16'0 0.8
2017-Aug-09 22:00N 33°44' W 118°16'0 0.7
2017-Aug-09 21:31N 33°44' W 118°16'0 0.1
2017-Aug-09 21:00N 33°44' W 118°16'0 0.0
2017-Aug-09 20:31N 33°44' W 118°16'2 3.4
2017-Aug-09 20:00N 33°43' W 118°15'5 9.8
2017-Aug-09 19:31N 33°39' W 118°12'5 9.9
2017-Aug-09 19:01N 33°35' W 118°08'0 0.4
2017-Aug-09 18:31N 33°35' W 118°08'0 0.1
2017-Aug-09 18:01N 33°35' W 118°08'1 2.3
2017-Aug-09 17:30N 33°34' W 118°07'0 0.0
2017-Aug-09 16:59N 33°34' W 118°07'0 0.0
2017-Aug-09 16:31N 33°34' W 118°07'0 0.0
2017-Aug-09 16:00N 33°34' W 118°07'3 5.4
2017-Aug-09 15:30N 33°36' W 118°09'5 9.2
2017-Aug-09 15:01N 33°40' W 118°12'5 9.4
2017-Aug-09 14:30N 33°43' W 118°16'1 1.8
2017-Aug-09 14:00N 33°44' W 118°16'0 0.0
2017-Aug-09 13:31N 33°44' W 118°16'0 0.0
2017-Aug-09 13:01N 33°44' W 118°16'0 0.0
2017-Aug-09 12:30N 33°44' W 118°16'0 0.1
2017-Aug-09 12:00N 33°44' W 118°16'0 0.0
2017-Aug-09 11:30N 33°44' W 118°16'0 0.0
2017-Aug-09 11:01N 33°44' W 118°16'0 0.0
2017-Aug-09 10:31N 33°44' W 118°16'0 0.0
2017-Aug-09 10:00N 33°44' W 118°16'0 0.0
2017-Aug-09 09:30N 33°44' W 118°16'0 0.0
2017-Aug-09 09:01N 33°44' W 118°16'0 0.0
2017-Aug-09 08:31N 33°44' W 118°16'0 0.0
2017-Aug-09 08:00N 33°44' W 118°16'0 0.0
2017-Aug-09 07:30N 33°44' W 118°16'0 0.0
2017-Aug-09 07:00N 33°44' W 118°16'0 0.0
2017-Aug-09 06:31N 33°44' W 118°16'0 0.0
2017-Aug-09 06:01N 33°44' W 118°16'0 0.0
2017-Aug-09 05:31N 33°44' W 118°16'0 0.0
2017-Aug-09 05:01N 33°44' W 118°16'0 0.0
2017-Aug-09 04:30N 33°44' W 118°16'0 0.0
2017-Aug-09 04:01N 33°44' W 118°16'0 0.0
2017-Aug-09 03:31N 33°44' W 118°16'0 0.0
2017-Aug-09 03:00N 33°44' W 118°16'0 0.0
2017-Aug-09 02:31N 33°44' W 118°16'0 0.0
2017-Aug-09 02:00N 33°44' W 118°16'0 0.0
2017-Aug-09 01:30N 33°44' W 118°16'0 0.0
2017-Aug-09 01:01N 33°44' W 118°16'0 0.0
2017-Aug-09 00:31N 33°44' W 118°16'0 0.0
2017-Aug-09 00:01N 33°44' W 118°16'0 0.0
2017-Aug-08 23:31N 33°44' W 118°16'0 0.0
2017-Aug-08 23:00N 33°44' W 118°16'0 0.0
2017-Aug-08 22:31N 33°44' W 118°16'0 0.0
2017-Aug-08 22:00N 33°44' W 118°16'0 0.0
2017-Aug-08 21:31N 33°44' W 118°16'0 0.0
2017-Aug-08 21:00N 33°44' W 118°16'0 0.0
2017-Aug-08 20:31N 33°44' W 118°16'0 0.0
2017-Aug-08 20:01N 33°44' W 118°16'0 0.0
2017-Aug-08 19:30N 33°44' W 118°16'0 0.0
2017-Aug-08 19:01N 33°44' W 118°16'0 0.0
2017-Aug-08 18:30N 33°44' W 118°16'0 0.0
2017-Aug-08 18:01N 33°44' W 118°16'0 0.0
2017-Aug-08 17:31N 33°44' W 118°16'0 0.0
2017-Aug-08 17:00N 33°44' W 118°16'0 0.0
2017-Aug-08 16:30N 33°44' W 118°16'0 0.0
2017-Aug-08 16:00N 33°44' W 118°16'0 0.0
2017-Aug-08 15:31N 33°44' W 118°16'0 0.0
2017-Aug-08 15:01N 33°44' W 118°16'0 0.0
2017-Aug-08 14:31N 33°44' W 118°16'0 0.0
2017-Aug-08 14:00N 33°44' W 118°16'0 0.0
2017-Aug-08 13:31N 33°44' W 118°16'0 0.0
2017-Aug-08 13:00N 33°44' W 118°16'0 0.0
2017-Aug-08 12:30N 33°44' W 118°16'  
Track history (hours):
 
Tides and Currents Weather Stations Pressure Air Temp Water Temp Dewpoint Dewpoint Depression Visibility Wind Speed Wind Dir Waves Ship Positions

Kenneth Carl

Owner: So. Cal. Ship Services, Inc., San Pedro, CA. More information available from US FCC via Universal Licensing System and Coast Guard Vessel Documentation Center.

Last reported at 2017-Aug-18 12:28 UTC. Time now 2017-Aug-18 12:52 UTC.
Position N 33°44' W 118°16'.

Length 31 m; draft 3 m.

Type: Ship. MMSI: 367492920.

Date/timePositionNaut miles runAvg speedWind from/ knotsBaromVisibWave heightAir tempDewpointWater temp
2017-Aug-18 12:28N 33°44' W 118°16'0 0.0
2017-Aug-18 11:55N 33°44' W 118°16'0 0.0
2017-Aug-18 11:28N 33°44' W 118°16'0 0.0
2017-Aug-18 10:58N 33°44' W 118°16'0 0.0
2017-Aug-18 10:28N 33°44' W 118°16'0 0.0
2017-Aug-18 09:58N 33°44' W 118°16'0 0.0
2017-Aug-18 09:28N 33°44' W 118°16'0 0.0
2017-Aug-18 08:58N 33°44' W 118°16'0 0.0
2017-Aug-18 08:28N 33°44' W 118°16'0 0.0
2017-Aug-18 07:59N 33°44' W 118°16'2 4.3
2017-Aug-18 07:30N 33°42' W 118°15'5 9.9
2017-Aug-18 07:00N 33°43' W 118°21'510.3
2017-Aug-18 06:31N 33°45' W 118°27'510.5
2017-Aug-18 06:00N 33°48' W 118°32'510.5
2017-Aug-18 05:31N 33°51' W 118°37'510.5
2017-Aug-18 05:00N 33°53' W 118°43'510.7
2017-Aug-18 04:30N 33°56' W 118°49'510.1
2017-Aug-18 04:01N 33°58' W 118°54'510.0
2017-Aug-18 03:31N 33°60' W 118°60'5 9.9
2017-Aug-18 03:01N 34°02' W 119°05'510.2
2017-Aug-18 02:31N 34°04' W 119°11'5 9.9
2017-Aug-18 02:00N 34°09' W 119°13'1 1.2
2017-Aug-18 01:30N 34°09' W 119°13'0 0.0
2017-Aug-18 01:01N 34°09' W 119°13'2 3.9
2017-Aug-18 00:30N 34°07' W 119°12'1 2.4
2017-Aug-18 00:01N 34°06' W 119°13'5 9.7
2017-Aug-17 23:31N 34°01' W 119°13'5 9.7
2017-Aug-17 23:00N 33°56' W 119°13'510.0
2017-Aug-17 22:31N 33°51' W 119°14'510.1
2017-Aug-17 22:00N 33°46' W 119°14'4 7.4
2017-Aug-17 21:30N 33°43' W 119°13'510.5
2017-Aug-17 21:00N 33°39' W 119°09'1 2.4
2017-Aug-17 20:30N 33°38' W 119°08'0 0.1
2017-Aug-17 20:01N 33°38' W 119°08'0 0.6
2017-Aug-17 19:31N 33°38' W 119°07'0 0.4
2017-Aug-17 19:00N 33°38' W 119°07'0 0.3
2017-Aug-17 18:31N 33°38' W 119°07'0 0.5
2017-Aug-17 18:01N 33°38' W 119°08'0 0.2
2017-Aug-17 17:31N 33°37' W 119°08'0 0.2
2017-Aug-17 17:01N 33°37' W 119°08'0 0.5
2017-Aug-17 16:30N 33°37' W 119°08'4 7.6
2017-Aug-17 16:01N 33°39' W 119°12'1 2.4
2017-Aug-17 15:31N 33°39' W 119°14'1 1.7
2017-Aug-17 15:00N 33°38' W 119°14'1 1.1
2017-Aug-17 14:30N 33°38' W 119°15'1 1.3
2017-Aug-17 14:00N 33°38' W 119°15'1 1.9
2017-Aug-17 13:30N 33°38' W 119°17'1 3.0
2017-Aug-17 13:01N 33°38' W 119°15'2 4.2
2017-Aug-17 12:30N 33°40' W 119°15'4 7.5
2017-Aug-17 12:00N 33°44' W 119°15'4 7.5
2017-Aug-17 11:30N 33°48' W 119°15'4 7.8
2017-Aug-17 11:00N 33°51' W 119°15'4 8.4
2017-Aug-17 10:31N 33°56' W 119°14'4 8.6
2017-Aug-17 10:00N 33°60' W 119°14'4 8.5
2017-Aug-17 09:31N 34°04' W 119°14'4 8.6
2017-Aug-17 09:00N 34°08' W 119°13'1 1.6
2017-Aug-17 08:30N 34°09' W 119°12'0 0.0
2017-Aug-17 08:00N 34°09' W 119°12'0 0.0
2017-Aug-17 07:30N 34°09' W 119°12'0 0.0
2017-Aug-17 07:00N 34°09' W 119°12'0 0.0
2017-Aug-17 06:30N 34°09' W 119°12'0 0.0
2017-Aug-17 06:00N 34°09' W 119°12'0 0.0
2017-Aug-17 05:30N 34°09' W 119°12'0 0.0
2017-Aug-17 05:00N 34°09' W 119°12'0 0.0
2017-Aug-17 04:29N 34°09' W 119°12'0 0.0
2017-Aug-17 04:00N 34°09' W 119°12'0 0.0
2017-Aug-17 03:30N 34°09' W 119°12'0 0.0
2017-Aug-17 02:56N 34°09' W 119°12'0 0.0
2017-Aug-17 02:30N 34°09' W 119°12'0 0.0
2017-Aug-17 02:00N 34°09' W 119°12'0 0.0
2017-Aug-17 01:30N 34°09' W 119°12'0 0.0
2017-Aug-17 01:00N 34°09' W 119°12'0 0.0
2017-Aug-17 00:30N 34°09' W 119°12'0 0.0
2017-Aug-16 23:54N 34°09' W 119°12'1 3.1
2017-Aug-16 23:30N 34°08' W 119°13'2 4.5
2017-Aug-16 23:00N 34°06' W 119°13'5 9.6
2017-Aug-16 22:30N 34°01' W 119°13'510.1
2017-Aug-16 22:00N 33°56' W 119°13'510.2
2017-Aug-16 21:30N 33°51' W 119°13'510.3
2017-Aug-16 21:00N 33°46' W 119°14'510.1
2017-Aug-16 20:30N 33°41' W 119°14'3 6.2
2017-Aug-16 20:00N 33°39' W 119°11'3 6.0
2017-Aug-16 19:30N 33°37' W 119°08'1 2.7
2017-Aug-16 19:00N 33°38' W 119°09'1 1.7
2017-Aug-16 18:30N 33°39' W 119°09'0 0.6
2017-Aug-16 18:00N 33°39' W 119°09'0 0.6
2017-Aug-16 17:28N 33°39' W 119°09'0 0.7
2017-Aug-16 17:00N 33°39' W 119°09'0 0.8
2017-Aug-16 16:30N 33°38' W 119°10'0 1.0
2017-Aug-16 16:00N 33°38' W 119°10'1 1.4
2017-Aug-16 15:30N 33°38' W 119°11'2 3.5
2017-Aug-16 15:00N 33°38' W 119°13'1 1.3
2017-Aug-16 14:30N 33°38' W 119°14'0 0.9
2017-Aug-16 14:00N 33°37' W 119°14'0 0.2
2017-Aug-16 13:30N 33°37' W 119°14'0 0.6
2017-Aug-16 13:00N 33°37' W 119°15'3 6.4
2017-Aug-16 12:30N 33°40' W 119°15'4 7.9
2017-Aug-16 12:00N 33°44' W 119°15'4 8.1
2017-Aug-16 11:30N 33°48' W 119°14'4 8.0
2017-Aug-16 11:00N 33°52' W 119°14'5 8.0
2017-Aug-16 10:22N 33°57' W 119°14'3 8.2
2017-Aug-16 10:00N 34°00' W 119°14'4 8.2
2017-Aug-16 09:30N 34°04' W 119°14'4 8.3
2017-Aug-16 09:00N 34°09' W 119°13'1 1.3
2017-Aug-16 08:29N 34°09' W 119°13'0 0.0
2017-Aug-16 08:00N 34°09' W 119°13'0 0.0
2017-Aug-16 07:29N 34°09' W 119°13'0 0.0
2017-Aug-16 06:59N 34°09' W 119°13'0 0.0
2017-Aug-16 06:30N 34°09' W 119°13'0 0.0
2017-Aug-16 05:58N 34°09' W 119°13'0 0.0
2017-Aug-16 05:28N 34°09' W 119°13'0 0.0
2017-Aug-16 04:59N 34°09' W 119°13'0 0.0
2017-Aug-16 04:28N 34°09' W 119°13'0 0.0
2017-Aug-16 04:00N 34°09' W 119°13'0 0.0
2017-Aug-16 03:30N 34°09' W 119°13'0 0.0
2017-Aug-16 02:59N 34°09' W 119°13'0 0.0
2017-Aug-16 02:29N 34°09' W 119°13'0 0.0
2017-Aug-16 02:00N 34°09' W 119°13'0 0.0
2017-Aug-16 01:29N 34°09' W 119°13'0 0.0
2017-Aug-16 00:58N 34°09' W 119°13'0 0.0
2017-Aug-16 00:29N 34°09' W 119°13'0 0.0
2017-Aug-16 00:00N 34°09' W 119°13'0 0.0
2017-Aug-15 23:27N 34°09' W 119°13'0 0.0
2017-Aug-15 22:59N 34°09' W 119°13'0 0.0
2017-Aug-15 22:25N 34°09' W 119°13'0 0.0
2017-Aug-15 21:56N 34°09' W 119°13'0 0.0
2017-Aug-15 21:27N 34°09' W 119°13'0 0.0
2017-Aug-15 21:00N 34°09' W 119°13'0 0.0
2017-Aug-15 20:27N 34°09' W 119°13'0 0.0
2017-Aug-15 19:58N 34°09' W 119°13'0 0.0
2017-Aug-15 19:30N 34°09' W 119°13'0 0.2
2017-Aug-15 19:00N 34°09' W 119°12'2 4.0
2017-Aug-15 18:30N 34°07' W 119°12'5 9.6
2017-Aug-15 18:00N 34°04' W 119°07'5 9.7
2017-Aug-15 17:30N 34°02' W 119°02'510.1
2017-Aug-15 17:00N 33°60' W 118°57'510.0
2017-Aug-15 16:30N 33°57' W 118°52'5 9.8
2017-Aug-15 16:00N 33°55' W 118°47'5 9.8
2017-Aug-15 15:30N 33°52' W 118°42'510.0
2017-Aug-15 15:00N 33°49' W 118°36'5 9.9
2017-Aug-15 14:30N 33°47' W 118°31'1210.2
2017-Aug-15 13:18N 33°42' W 118°18'2 7.9
2017-Aug-15 13:00N 33°43' W 118°15'1 2.6
2017-Aug-15 12:26N 33°44' W 118°16'0 0.0
2017-Aug-15 11:59N 33°44' W 118°16'0 0.0
2017-Aug-15 09:52N 33°44' W 118°16'0 0.0
2017-Aug-15 09:10N 33°44' W 118°16'0 0.0
2017-Aug-15 08:52N 33°44' W 118°16'0 0.0
2017-Aug-15 07:10N 33°44' W 118°16'0 0.0
2017-Aug-15 06:52N 33°44' W 118°16'0 0.0
2017-Aug-15 06:04N 33°44' W 118°16'0 0.0
2017-Aug-15 05:58N 33°44' W 118°16'0 0.0
2017-Aug-15 05:22N 33°44' W 118°16'0 0.0
2017-Aug-15 04:52N 33°44' W 118°16'0 0.0
2017-Aug-15 04:28N 33°44' W 118°16'0 0.0
2017-Aug-15 03:58N 33°44' W 118°16'0 0.0
2017-Aug-15 03:16N 33°44' W 118°16'0 0.0
2017-Aug-15 02:58N 33°44' W 118°16'0 0.0
2017-Aug-15 01:58N 33°44' W 118°16'0 0.0
2017-Aug-15 01:28N 33°44' W 118°16'0 0.0
2017-Aug-15 00:58N 33°44' W 118°16'0 0.0
2017-Aug-15 00:28N 33°44' W 118°16'0 0.0
2017-Aug-15 00:00N 33°44' W 118°16'0 0.0
2017-Aug-14 23:30N 33°44' W 118°16'0 0.0
2017-Aug-14 23:00N 33°44' W 118°16'0 0.0
2017-Aug-14 22:30N 33°44' W 118°16'0 0.0
2017-Aug-14 22:00N 33°44' W 118°16'0 0.0
2017-Aug-14 21:30N 33°44' W 118°16'0 0.0
2017-Aug-14 21:00N 33°44' W 118°16'0 0.0
2017-Aug-14 20:30N 33°44' W 118°16'0 0.0
2017-Aug-14 20:00N 33°44' W 118°16'0 0.8
2017-Aug-14 19:30N 33°44' W 118°16'0 0.7
2017-Aug-14 18:55N 33°44' W 118°16'0 0.0
2017-Aug-14 18:25N 33°44' W 118°16'0 0.0
2017-Aug-14 17:55N 33°44' W 118°16'0 0.0
2017-Aug-14 17:25N 33°44' W 118°16'0 0.0
2017-Aug-14 16:43N 33°44' W 118°16'0 0.0
2017-Aug-14 16:19N 33°44' W 118°16'0 0.0
2017-Aug-14 15:37N 33°44' W 118°16'0 0.0
2017-Aug-14 14:49N 33°44' W 118°16'0 0.0
2017-Aug-14 14:13N 33°44' W 118°16'0 0.0
2017-Aug-14 13:58N 33°44' W 118°16'0 0.0
2017-Aug-14 13:25N 33°44' W 118°16'0 0.0
2017-Aug-14 12:09N 33°44' W 118°16'0 0.0
2017-Aug-14 11:57N 33°44' W 118°16'0 0.0
2017-Aug-14 11:27N 33°44' W 118°16'0 0.0
2017-Aug-14 10:57N 33°44' W 118°16'0 0.0
2017-Aug-14 10:30N 33°44' W 118°16'0 0.0
2017-Aug-14 10:00N 33°44' W 118°16'0 0.0
2017-Aug-14 09:30N 33°44' W 118°16'0 0.0
2017-Aug-14 09:00N 33°44' W 118°16'0 0.0
2017-Aug-14 08:27N 33°44' W 118°16'0 0.0
2017-Aug-14 07:57N 33°44' W 118°16'0 0.0
2017-Aug-14 07:30N 33°44' W 118°16'0 0.0
2017-Aug-14 06:51N 33°44' W 118°16'0 0.0
2017-Aug-14 06:30N 33°44' W 118°16'0 0.0
2017-Aug-14 06:00N 33°44' W 118°16'0 0.0
2017-Aug-14 05:24N 33°44' W 118°16'0 0.0
2017-Aug-14 04:57N 33°44' W 118°16'0 0.0
2017-Aug-14 04:27N 33°44' W 118°16'0 0.0
2017-Aug-14 03:57N 33°44' W 118°16'0 0.0
2017-Aug-14 03:30N 33°44' W 118°16'0 0.0
2017-Aug-14 02:57N 33°44' W 118°16'0 0.0
2017-Aug-14 02:30N 33°44' W 118°16'0 0.0
2017-Aug-14 02:00N 33°44' W 118°16'0 0.0
2017-Aug-14 01:30N 33°44' W 118°16'0 0.0
2017-Aug-14 01:00N 33°44' W 118°16'0 0.0
2017-Aug-14 00:30N 33°44' W 118°16'0 0.0
2017-Aug-14 00:00N 33°44' W 118°16'0 0.0
2017-Aug-13 23:30N 33°44' W 118°16'0 0.0
2017-Aug-13 22:57N 33°44' W 118°16'0 0.0
2017-Aug-13 22:27N 33°44' W 118°16'0 0.0
2017-Aug-13 22:00N 33°44' W 118°16'0 0.0
2017-Aug-13 21:21N 33°44' W 118°16'0 0.0
2017-Aug-13 20:57N 33°44' W 118°16'0 0.0
2017-Aug-13 20:27N 33°44' W 118°16'0 0.0
2017-Aug-13 20:00N 33°44' W 118°16'0 0.0
2017-Aug-13 19:30N 33°44' W 118°16'0 0.0
2017-Aug-13 19:00N 33°44' W 118°16'0 0.0
2017-Aug-13 18:30N 33°44' W 118°16'0 0.0
2017-Aug-13 18:00N 33°44' W 118°16'0 0.0
2017-Aug-13 17:24N 33°44' W 118°16'0 0.0
2017-Aug-13 16:57N 33°44' W 118°16'0 0.0
2017-Aug-13 16:30N 33°44' W 118°16'0 0.0
2017-Aug-13 16:00N 33°44' W 118°16'0 0.0
2017-Aug-13 15:30N 33°44' W 118°16'0 0.0
2017-Aug-13 14:51N 33°44' W 118°16'0 0.0
2017-Aug-13 14:30N 33°44' W 118°16'0 0.0
2017-Aug-13 14:00N 33°44' W 118°16'0 0.0
2017-Aug-13 13:30N 33°44' W 118°16'0 0.0
2017-Aug-13 12:57N 33°44' W 118°16'0 0.0
2017-Aug-13 12:30N 33°44' W 118°16'0 0.0
2017-Aug-13 11:54N 33°44' W 118°16'0 0.0
2017-Aug-13 11:24N 33°44' W 118°16'0 0.0
2017-Aug-13 10:57N 33°44' W 118°16'0 0.0
2017-Aug-13 10:27N 33°44' W 118°16'0 0.0
2017-Aug-13 10:00N 33°44' W 118°16'0 0.0
2017-Aug-13 09:30N 33°44' W 118°16'0 0.0
2017-Aug-13 09:00N 33°44' W 118°16'0 0.0
2017-Aug-13 08:30N 33°44' W 118°16'0 0.0
2017-Aug-13 08:00N 33°44' W 118°16'0 0.0
2017-Aug-13 07:30N 33°44' W 118°16'0 0.0
2017-Aug-13 07:00N 33°44' W 118°16'0 0.0
2017-Aug-13 06:27N 33°44' W 118°16'0 0.0
2017-Aug-13 06:00N 33°44' W 118°16'0 0.0
2017-Aug-13 05:30N 33°44' W 118°16'0 0.0
2017-Aug-13 05:00N 33°44' W 118°16'0 0.0
2017-Aug-13 04:30N 33°44' W 118°16'0 0.0
2017-Aug-13 04:00N 33°44' W 118°16'0 0.0
2017-Aug-13 03:30N 33°44' W 118°16'0 0.0
2017-Aug-13 03:00N 33°44' W 118°16'0 0.0
2017-Aug-13 02:30N 33°44' W 118°16'0 0.0
2017-Aug-13 01:57N 33°44' W 118°16'0 0.0
2017-Aug-13 01:30N 33°44' W 118°16'0 0.0
2017-Aug-13 01:00N 33°44' W 118°16'0 0.0
2017-Aug-13 00:30N 33°44' W 118°16'0 0.0
2017-Aug-12 23:57N 33°44' W 118°16'0 0.0
2017-Aug-12 23:30N 33°44' W 118°16'0 0.0
2017-Aug-12 23:00N 33°44' W 118°16'0 0.0
2017-Aug-12 22:30N 33°44' W 118°16'0 0.0
2017-Aug-12 22:00N 33°44' W 118°16'0 0.0
2017-Aug-12 21:27N 33°44' W 118°16'0 0.0
2017-Aug-12 21:00N 33°44' W 118°16'0 0.0
2017-Aug-12 20:30N 33°44' W 118°16'0 0.0
2017-Aug-12 19:48N 33°44' W 118°16'0 0.0
2017-Aug-12 19:24N 33°44' W 118°16'0 0.0
2017-Aug-12 19:00N 33°44' W 118°16'0 0.0
2017-Aug-12 18:27N 33°44' W 118°16'0 0.0
2017-Aug-12 18:00N 33°44' W 118°16'0 0.0
2017-Aug-12 17:27N 33°44' W 118°16'0 0.0
2017-Aug-12 16:51N 33°44' W 118°16'0 0.0
2017-Aug-12 16:27N 33°44' W 118°16'0 0.0
2017-Aug-12 16:00N 33°44' W 118°16'0 0.0
2017-Aug-12 15:30N 33°44' W 118°16'0 0.0
2017-Aug-12 15:00N 33°44' W 118°16'0 0.0
2017-Aug-12 14:27N 33°44' W 118°16'0 0.0
2017-Aug-12 14:00N 33°44' W 118°16'0 0.0
2017-Aug-12 13:27N 33°44' W 118°16'0 0.0
2017-Aug-12 12:51N 33°44' W 118°16'0 0.0
2017-Aug-12 12:30N 33°44' W 118°16'0 0.0
2017-Aug-12 12:00N 33°44' W 118°16'0 0.0
2017-Aug-12 11:21N 33°44' W 118°16'0 0.0
2017-Aug-12 11:00N 33°44' W 118°16'0 0.0
2017-Aug-12 10:30N 33°44' W 118°16'0 0.0
2017-Aug-12 10:00N 33°44' W 118°16'0 0.0
2017-Aug-12 09:30N 33°44' W 118°16'0 0.0
2017-Aug-12 09:00N 33°44' W 118°16'0 0.0
2017-Aug-12 08:30N 33°44' W 118°16'0 0.0
2017-Aug-12 08:00N 33°44' W 118°16'0 0.0
2017-Aug-12 07:30N 33°44' W 118°16'0 0.0
2017-Aug-12 07:00N 33°44' W 118°16'0 0.0
2017-Aug-12 06:30N 33°44' W 118°16'0 0.0
2017-Aug-12 06:00N 33°44' W 118°16'0 0.0
2017-Aug-12 05:30N 33°44' W 118°16'0 0.0
2017-Aug-12 05:00N 33°44' W 118°16'0 0.0
2017-Aug-12 04:30N 33°44' W 118°16'0 0.0
2017-Aug-12 04:00N 33°44' W 118°16'0 0.0
2017-Aug-12 03:30N 33°44' W 118°16'0 0.0
2017-Aug-12 03:00N 33°44' W 118°16'0 0.0
2017-Aug-12 02:30N 33°44' W 118°16'0 0.0
2017-Aug-12 02:00N 33°44' W 118°16'0 0.0
2017-Aug-12 01:30N 33°44' W 118°16'0 0.0
2017-Aug-12 01:00N 33°44' W 118°16'0 0.0
2017-Aug-12 00:30N 33°44' W 118°16'0 0.0
2017-Aug-12 00:00N 33°44' W 118°16'0 0.0
2017-Aug-11 23:30N 33°44' W 118°16'0 0.1
2017-Aug-11 23:01N 33°44' W 118°16'0 0.0
2017-Aug-11 22:31N 33°44' W 118°16'3 6.3
2017-Aug-11 22:01N 33°42' W 118°14'5 9.6
2017-Aug-11 21:31N 33°38' W 118°11'5 9.6
2017-Aug-11 21:01N 33°34' W 118°07'1 2.3
2017-Aug-11 20:31N 33°35' W 118°08'0 0.2
2017-Aug-11 20:00N 33°35' W 118°08'0 0.0
2017-Aug-11 19:30N 33°35' W 118°08'0 0.0
2017-Aug-11 18:56N 33°35' W 118°08'0 0.0
2017-Aug-11 18:30N 33°35' W 118°08'0 0.0
2017-Aug-11 18:00N 33°35' W 118°08'0 0.0
2017-Aug-11 17:31N 33°35' W 118°08'0 0.0
2017-Aug-11 17:00N 33°35' W 118°08'0 0.0
2017-Aug-11 16:31N 33°35' W 118°08'0 0.0
2017-Aug-11 16:00N 33°35' W 118°08'2 4.4
2017-Aug-11 15:30N 33°37' W 118°09'5 9.4
2017-Aug-11 15:00N 33°40' W 118°13'4 8.9
2017-Aug-11 14:31N 33°44' W 118°16'0 0.4
2017-Aug-11 13:30N 33°44' W 118°16'0 0.0
2017-Aug-11 13:00N 33°44' W 118°16'0 0.0
2017-Aug-11 12:30N 33°44' W 118°16'0 0.1
2017-Aug-11 11:57N 33°44' W 118°16'0 0.0
2017-Aug-11 11:30N 33°44' W 118°16'0 0.0
2017-Aug-11 11:00N 33°44' W 118°16'0 0.0
2017-Aug-11 10:30N 33°44' W 118°16'0 0.0
2017-Aug-11 09:57N 33°44' W 118°16'0 0.0
2017-Aug-11 09:30N 33°44' W 118°16'0 0.0
2017-Aug-11 09:00N 33°44' W 118°16'0 0.0
2017-Aug-11 08:21N 33°44' W 118°16'0 0.0
2017-Aug-11 07:57N 33°44' W 118°16'0 0.0
2017-Aug-11 07:30N 33°44' W 118°16'0 0.0
2017-Aug-11 07:00N 33°44' W 118°16'0 0.0
2017-Aug-11 06:30N 33°44' W 118°16'0 0.0
2017-Aug-11 05:57N 33°44' W 118°16'0 0.0
2017-Aug-11 05:30N 33°44' W 118°16'0 0.0
2017-Aug-11 05:00N 33°44' W 118°16'0 0.0
2017-Aug-11 04:24N 33°44' W 118°16'0 0.0
2017-Aug-11 04:00N 33°44' W 118°16'0 0.0
2017-Aug-11 03:30N 33°44' W 118°16'0 0.0
2017-Aug-11 02:57N 33°44' W 118°16'0 0.0
2017-Aug-11 02:30N 33°44' W 118°16'0 0.0
2017-Aug-11 02:00N 33°44' W 118°16'0 0.0
2017-Aug-11 01:21N 33°44' W 118°16'0 0.0
2017-Aug-11 01:00N 33°44' W 118°16'0 0.0
2017-Aug-11 00:30N 33°44' W 118°16'0 0.0
2017-Aug-11 00:00N 33°44' W 118°16'0 0.0
2017-Aug-10 23:30N 33°44' W 118°16'0 0.0
2017-Aug-10 23:00N 33°44' W 118°16'0 0.0
2017-Aug-10 22:30N 33°44' W 118°16'0 0.0
2017-Aug-10 22:00N 33°44' W 118°16'0 0.0
2017-Aug-10 21:30N 33°44' W 118°16'0 0.0
2017-Aug-10 21:00N 33°44' W 118°16'0 0.0
2017-Aug-10 20:30N 33°44' W 118°16'0 0.0
2017-Aug-10 20:00N 33°44' W 118°16'0 0.0
2017-Aug-10 19:30N 33°44' W 118°16'0 0.0
2017-Aug-10 19:00N 33°44' W 118°16'0 0.0
2017-Aug-10 18:27N 33°44' W 118°16'0 0.0
2017-Aug-10 18:00N 33°44' W 118°16'0 0.0
2017-Aug-10 17:27N 33°44' W 118°16'0 0.0
2017-Aug-10 16:57N 33°44' W 118°16'0 0.0
2017-Aug-10 16:27N 33°44' W 118°16'0 0.0
2017-Aug-10 15:57N 33°44' W 118°16'0 0.0
2017-Aug-10 15:30N 33°44' W 118°16'0 0.0
2017-Aug-10 14:57N 33°44' W 118°16'0 0.0
2017-Aug-10 14:27N 33°44' W 118°16'0 0.0
2017-Aug-10 13:57N 33°44' W 118°16'0 0.0
2017-Aug-10 13:27N 33°44' W 118°16'0 0.0
2017-Aug-10 12:57N 33°44' W 118°16'0 0.0
2017-Aug-10 12:27N 33°44' W 118°16'0 0.0
2017-Aug-10 11:57N 33°44' W 118°16'0 0.0
2017-Aug-10 11:27N 33°44' W 118°16'0 0.0
2017-Aug-10 11:00N 33°44' W 118°16'0 0.0
2017-Aug-10 10:30N 33°44' W 118°16'0 0.0
2017-Aug-10 09:57N 33°44' W 118°16'0 0.0
2017-Aug-10 09:27N 33°44' W 118°16'0 0.0
2017-Aug-10 09:00N 33°44' W 118°16'0 0.0
2017-Aug-10 08:30N 33°44' W 118°16'0 0.0
2017-Aug-10 08:00N 33°44' W 118°16'0 0.0
2017-Aug-10 07:30N 33°44' W 118°16'0 0.0
2017-Aug-10 07:00N 33°44' W 118°16'0 0.0
2017-Aug-10 06:30N 33°44' W 118°16'0 0.0
2017-Aug-10 05:57N 33°44' W 118°16'0 0.0
2017-Aug-10 05:30N 33°44' W 118°16'0 0.0
2017-Aug-10 04:57N 33°44' W 118°16'0 0.0
2017-Aug-10 04:30N 33°44' W 118°16'0 0.0
2017-Aug-10 04:00N 33°44' W 118°16'0 0.0
2017-Aug-10 03:30N 33°44' W 118°16'0 0.0
2017-Aug-10 02:57N 33°44' W 118°16'0 0.0
2017-Aug-10 02:30N 33°44' W 118°16'0 0.0
2017-Aug-10 02:00N 33°44' W 118°16'0 0.0
2017-Aug-10 01:30N 33°44' W 118°16'0 0.0
2017-Aug-10 01:00N 33°44' W 118°16'0 0.0
2017-Aug-10 00:30N 33°44' W 118°16'0 0.0
2017-Aug-09 23:57N 33°44' W 118°16'0 0.0
2017-Aug-09 23:30N 33°44' W 118°16'0 0.0
2017-Aug-09 23:00N 33°44' W 118°16'0 0.0
2017-Aug-09 22:30N 33°44' W 118°16'0 0.8
2017-Aug-09 22:00N 33°44' W 118°16'0 0.7
2017-Aug-09 21:31N 33°44' W 118°16'0 0.1
2017-Aug-09 21:00N 33°44' W 118°16'0 0.0
2017-Aug-09 20:31N 33°44' W 118°16'2 3.4
2017-Aug-09 20:00N 33°43' W 118°15'5 9.8
2017-Aug-09 19:31N 33°39' W 118°12'5 9.9
2017-Aug-09 19:01N 33°35' W 118°08'0 0.4
2017-Aug-09 18:31N 33°35' W 118°08'0 0.1
2017-Aug-09 18:01N 33°35' W 118°08'1 2.3
2017-Aug-09 17:30N 33°34' W 118°07'0 0.0
2017-Aug-09 16:59N 33°34' W 118°07'0 0.0
2017-Aug-09 16:31N 33°34' W 118°07'0 0.0
2017-Aug-09 16:00N 33°34' W 118°07'3 5.4
2017-Aug-09 15:30N 33°36' W 118°09'5 9.2
2017-Aug-09 15:01N 33°40' W 118°12'5 9.4
2017-Aug-09 14:30N 33°43' W 118°16'1 1.8
2017-Aug-09 14:00N 33°44' W 118°16'0 0.0
2017-Aug-09 13:31N 33°44' W 118°16'0 0.0
2017-Aug-09 13:01N 33°44' W 118°16'0 0.0
2017-Aug-09 12:30N 33°44' W 118°16'0 0.1
2017-Aug-09 12:00N 33°44' W 118°16'0 0.0
2017-Aug-09 11:30N 33°44' W 118°16'0 0.0
2017-Aug-09 11:01N 33°44' W 118°16'0 0.0
2017-Aug-09 10:31N 33°44' W 118°16'0 0.0
2017-Aug-09 10:00N 33°44' W 118°16'0 0.0
2017-Aug-09 09:30N 33°44' W 118°16'0 0.0
2017-Aug-09 09:01N 33°44' W 118°16'0 0.0
2017-Aug-09 08:31N 33°44' W 118°16'0 0.0
2017-Aug-09 08:00N 33°44' W 118°16'0 0.0
2017-Aug-09 07:30N 33°44' W 118°16'0 0.0
2017-Aug-09 07:00N 33°44' W 118°16'0 0.0
2017-Aug-09 06:31N 33°44' W 118°16'0 0.0
2017-Aug-09 06:01N 33°44' W 118°16'0 0.0
2017-Aug-09 05:31N 33°44' W 118°16'0 0.0
2017-Aug-09 05:01N 33°44' W 118°16'0 0.0
2017-Aug-09 04:30N 33°44' W 118°16'0 0.0
2017-Aug-09 04:01N 33°44' W 118°16'0 0.0
2017-Aug-09 03:31N 33°44' W 118°16'0 0.0
2017-Aug-09 03:00N 33°44' W 118°16'0 0.0
2017-Aug-09 02:31N 33°44' W 118°16'0 0.0
2017-Aug-09 02:00N 33°44' W 118°16'0 0.0
2017-Aug-09 01:30N 33°44' W 118°16'0 0.0
2017-Aug-09 01:01N 33°44' W 118°16'0 0.0
2017-Aug-09 00:31N 33°44' W 118°16'0 0.0
2017-Aug-09 00:01N 33°44' W 118°16'0 0.0
2017-Aug-08 23:31N 33°44' W 118°16'0 0.0
2017-Aug-08 23:00N 33°44' W 118°16'0 0.0
2017-Aug-08 22:31N 33°44' W 118°16'0 0.0
2017-Aug-08 22:00N 33°44' W 118°16'0 0.0
2017-Aug-08 21:31N 33°44' W 118°16'0 0.0
2017-Aug-08 21:00N 33°44' W 118°16'0 0.0
2017-Aug-08 20:31N 33°44' W 118°16'0 0.0
2017-Aug-08 20:01N 33°44' W 118°16'0 0.0
2017-Aug-08 19:30N 33°44' W 118°16'0 0.0
2017-Aug-08 19:01N 33°44' W 118°16'0 0.0
2017-Aug-08 18:30N 33°44' W 118°16'0 0.0
2017-Aug-08 18:01N 33°44' W 118°16'0 0.0
2017-Aug-08 17:31N 33°44' W 118°16'0 0.0
2017-Aug-08 17:00N 33°44' W 118°16'0 0.0
2017-Aug-08 16:30N 33°44' W 118°16'0 0.0
2017-Aug-08 16:00N 33°44' W 118°16'0 0.0
2017-Aug-08 15:31N 33°44' W 118°16'0 0.0
2017-Aug-08 15:01N 33°44' W 118°16'0 0.0
2017-Aug-08 14:31N 33°44' W 118°16'0 0.0
2017-Aug-08 14:00N 33°44' W 118°16'0 0.0
2017-Aug-08 13:31N 33°44' W 118°16'0 0.0
2017-Aug-08 13:00N 33°44' W 118°16'0 0.0
2017-Aug-08 12:30N 33°44' W 118°16'  

Dump ship's entire track history